sensor_id;sensor_type;location;lat;lon;timestamp;P1;durP1;ratioP1;P2;durP2;ratioP2
28353;SDS011;15603;50.878;8.036;2024-02-28T00:01:19;27.27;;;10.52;;
28353;SDS011;15603;50.878;8.036;2024-02-28T00:03:46;27.75;;;11.13;;
28353;SDS011;15603;50.878;8.036;2024-02-28T00:06:16;25.38;;;10.98;;
28353;SDS011;15603;50.878;8.036;2024-02-28T00:08:44;27.17;;;10.48;;
28353;SDS011;15603;50.878;8.036;2024-02-28T00:11:13;24.15;;;9.57;;
28353;SDS011;15603;50.878;8.036;2024-02-28T00:13:40;23.75;;;9.40;;
28353;SDS011;15603;50.878;8.036;2024-02-28T00:16:07;29.25;;;9.90;;
28353;SDS011;15603;50.878;8.036;2024-02-28T00:18:34;24.35;;;9.52;;
28353;SDS011;15603;50.878;8.036;2024-02-28T00:21:03;20.27;;;8.63;;
28353;SDS011;15603;50.878;8.036;2024-02-28T00:23:30;19.80;;;9.60;;
28353;SDS011;15603;50.878;8.036;2024-02-28T00:25:58;23.38;;;8.35;;
28353;SDS011;15603;50.878;8.036;2024-02-28T00:28:25;22.70;;;9.05;;
28353;SDS011;15603;50.878;8.036;2024-02-28T00:30:52;19.70;;;7.57;;
28353;SDS011;15603;50.878;8.036;2024-02-28T00:33:19;19.98;;;7.78;;
28353;SDS011;15603;50.878;8.036;2024-02-28T00:35:46;19.95;;;7.85;;
28353;SDS011;15603;50.878;8.036;2024-02-28T00:38:13;15.40;;;7.03;;
28353;SDS011;15603;50.878;8.036;2024-02-28T00:40:40;16.45;;;7.18;;
28353;SDS011;15603;50.878;8.036;2024-02-28T00:43:07;21.10;;;7.32;;
28353;SDS011;15603;50.878;8.036;2024-02-28T00:45:35;19.98;;;7.93;;
28353;SDS011;15603;50.878;8.036;2024-02-28T00:48:02;18.58;;;6.95;;
28353;SDS011;15603;50.878;8.036;2024-02-28T00:50:29;19.70;;;8.55;;
28353;SDS011;15603;50.878;8.036;2024-02-28T00:52:57;21.30;;;8.48;;
28353;SDS011;15603;50.878;8.036;2024-02-28T00:55:24;23.58;;;9.27;;
28353;SDS011;15603;50.878;8.036;2024-02-28T00:57:52;26.15;;;9.93;;
28353;SDS011;15603;50.878;8.036;2024-02-28T01:00:19;21.95;;;8.35;;
28353;SDS011;15603;50.878;8.036;2024-02-28T01:02:46;21.88;;;8.00;;
28353;SDS011;15603;50.878;8.036;2024-02-28T01:05:14;20.92;;;7.93;;
28353;SDS011;15603;50.878;8.036;2024-02-28T01:07:41;22.60;;;9.93;;
28353;SDS011;15603;50.878;8.036;2024-02-28T01:10:08;25.90;;;9.85;;
28353;SDS011;15603;50.878;8.036;2024-02-28T01:12:37;25.80;;;10.13;;
28353;SDS011;15603;50.878;8.036;2024-02-28T01:15:04;19.85;;;7.95;;
28353;SDS011;15603;50.878;8.036;2024-02-28T01:17:32;17.67;;;7.75;;
28353;SDS011;15603;50.878;8.036;2024-02-28T01:19:59;28.13;;;9.05;;
28353;SDS011;15603;50.878;8.036;2024-02-28T01:22:27;22.98;;;9.10;;
28353;SDS011;15603;50.878;8.036;2024-02-28T01:24:54;28.70;;;10.18;;
28353;SDS011;15603;50.878;8.036;2024-02-28T01:27:22;25.33;;;8.98;;
28353;SDS011;15603;50.878;8.036;2024-02-28T01:29:49;29.35;;;9.75;;
28353;SDS011;15603;50.878;8.036;2024-02-28T01:32:17;25.42;;;9.05;;
28353;SDS011;15603;50.878;8.036;2024-02-28T01:34:45;30.60;;;11.48;;
28353;SDS011;15603;50.878;8.036;2024-02-28T01:37:12;32.13;;;10.30;;
28353;SDS011;15603;50.878;8.036;2024-02-28T01:39:40;25.67;;;9.75;;
28353;SDS011;15603;50.878;8.036;2024-02-28T01:42:07;24.58;;;9.90;;
28353;SDS011;15603;50.878;8.036;2024-02-28T01:44:36;28.10;;;11.18;;
28353;SDS011;15603;50.878;8.036;2024-02-28T01:47:10;29.48;;;10.40;;
28353;SDS011;15603;50.878;8.036;2024-02-28T01:49:38;30.88;;;11.70;;
28353;SDS011;15603;50.878;8.036;2024-02-28T01:52:07;34.47;;;11.80;;
28353;SDS011;15603;50.878;8.036;2024-02-28T01:54:36;26.35;;;11.02;;
28353;SDS011;15603;50.878;8.036;2024-02-28T01:57:03;29.88;;;11.30;;
28353;SDS011;15603;50.878;8.036;2024-02-28T01:59:32;30.42;;;11.20;;
28353;SDS011;15603;50.878;8.036;2024-02-28T02:02:03;41.03;;;13.93;;
28353;SDS011;15603;50.878;8.036;2024-02-28T02:04:31;35.70;;;13.65;;
28353;SDS011;15603;50.878;8.036;2024-02-28T02:06:58;40.08;;;13.02;;
28353;SDS011;15603;50.878;8.036;2024-02-28T02:09:28;40.03;;;13.40;;
28353;SDS011;15603;50.878;8.036;2024-02-28T02:11:56;30.83;;;11.63;;
28353;SDS011;15603;50.878;8.036;2024-02-28T02:14:23;43.17;;;14.63;;
28353;SDS011;15603;50.878;8.036;2024-02-28T02:16:51;44.95;;;13.95;;
28353;SDS011;15603;50.878;8.036;2024-02-28T02:19:18;40.78;;;13.73;;
28353;SDS011;15603;50.878;8.036;2024-02-28T02:21:52;40.92;;;14.68;;
28353;SDS011;15603;50.878;8.036;2024-02-28T02:24:20;51.15;;;16.13;;
28353;SDS011;15603;50.878;8.036;2024-02-28T02:26:48;49.33;;;17.02;;
28353;SDS011;15603;50.878;8.036;2024-02-28T02:29:18;46.42;;;15.75;;
28353;SDS011;15603;50.878;8.036;2024-02-28T02:31:45;63.28;;;17.35;;
28353;SDS011;15603;50.878;8.036;2024-02-28T02:34:12;50.08;;;16.17;;
28353;SDS011;15603;50.878;8.036;2024-02-28T02:36:39;47.42;;;15.95;;
28353;SDS011;15603;50.878;8.036;2024-02-28T02:39:06;39.20;;;15.18;;
28353;SDS011;15603;50.878;8.036;2024-02-28T02:41:34;44.58;;;17.02;;
28353;SDS011;15603;50.878;8.036;2024-02-28T02:44:02;51.20;;;16.98;;
28353;SDS011;15603;50.878;8.036;2024-02-28T02:46:29;47.42;;;16.48;;
28353;SDS011;15603;50.878;8.036;2024-02-28T02:48:56;45.10;;;17.20;;
28353;SDS011;15603;50.878;8.036;2024-02-28T02:51:23;46.92;;;17.08;;
28353;SDS011;15603;50.878;8.036;2024-02-28T02:53:52;35.25;;;15.48;;
28353;SDS011;15603;50.878;8.036;2024-02-28T02:56:20;37.65;;;14.55;;
28353;SDS011;15603;50.878;8.036;2024-02-28T02:58:48;38.25;;;15.68;;
28353;SDS011;15603;50.878;8.036;2024-02-28T03:01:15;44.88;;;15.60;;
28353;SDS011;15603;50.878;8.036;2024-02-28T03:03:42;39.75;;;16.48;;
28353;SDS011;15603;50.878;8.036;2024-02-28T03:06:09;39.47;;;16.27;;
28353;SDS011;15603;50.878;8.036;2024-02-28T03:08:37;54.03;;;16.23;;
28353;SDS011;15603;50.878;8.036;2024-02-28T03:11:04;38.53;;;15.57;;
28353;SDS011;15603;50.878;8.036;2024-02-28T03:13:35;37.00;;;14.15;;
28353;SDS011;15603;50.878;8.036;2024-02-28T03:16:03;39.67;;;17.13;;
28353;SDS011;15603;50.878;8.036;2024-02-28T03:18:31;53.33;;;16.35;;
28353;SDS011;15603;50.878;8.036;2024-02-28T03:20:58;46.88;;;18.23;;
28353;SDS011;15603;50.878;8.036;2024-02-28T03:23:25;46.03;;;15.80;;
28353;SDS011;15603;50.878;8.036;2024-02-28T03:25:52;42.78;;;16.15;;
28353;SDS011;15603;50.878;8.036;2024-02-28T03:28:19;45.72;;;17.52;;
28353;SDS011;15603;50.878;8.036;2024-02-28T03:30:46;48.50;;;16.98;;
28353;SDS011;15603;50.878;8.036;2024-02-28T03:33:14;42.65;;;16.48;;
28353;SDS011;15603;50.878;8.036;2024-02-28T03:35:41;46.47;;;17.25;;
28353;SDS011;15603;50.878;8.036;2024-02-28T03:38:08;55.80;;;17.23;;
28353;SDS011;15603;50.878;8.036;2024-02-28T03:40:35;55.30;;;18.98;;
28353;SDS011;15603;50.878;8.036;2024-02-28T03:43:02;50.15;;;18.17;;
28353;SDS011;15603;50.878;8.036;2024-02-28T03:45:30;53.92;;;16.10;;
28353;SDS011;15603;50.878;8.036;2024-02-28T03:47:57;52.30;;;17.80;;
28353;SDS011;15603;50.878;8.036;2024-02-28T03:50:24;48.33;;;17.42;;
28353;SDS011;15603;50.878;8.036;2024-02-28T03:52:51;52.65;;;17.38;;
28353;SDS011;15603;50.878;8.036;2024-02-28T03:55:18;55.45;;;17.38;;
28353;SDS011;15603;50.878;8.036;2024-02-28T03:57:49;54.42;;;17.80;;
28353;SDS011;15603;50.878;8.036;2024-02-28T04:00:18;54.13;;;19.30;;
28353;SDS011;15603;50.878;8.036;2024-02-28T04:02:46;48.22;;;18.67;;
28353;SDS011;15603;50.878;8.036;2024-02-28T04:05:13;51.47;;;18.30;;
28353;SDS011;15603;50.878;8.036;2024-02-28T04:07:41;54.47;;;19.48;;
28353;SDS011;15603;50.878;8.036;2024-02-28T04:10:08;60.00;;;17.80;;
28353;SDS011;15603;50.878;8.036;2024-02-28T04:12:37;59.13;;;20.77;;
28353;SDS011;15603;50.878;8.036;2024-02-28T04:15:05;50.75;;;18.25;;
28353;SDS011;15603;50.878;8.036;2024-02-28T04:17:32;53.15;;;18.05;;
28353;SDS011;15603;50.878;8.036;2024-02-28T04:19:59;55.40;;;20.55;;
28353;SDS011;15603;50.878;8.036;2024-02-28T04:22:31;64.38;;;18.20;;
28353;SDS011;15603;50.878;8.036;2024-02-28T04:24:58;55.15;;;18.95;;
28353;SDS011;15603;50.878;8.036;2024-02-28T04:27:25;48.47;;;18.95;;
28353;SDS011;15603;50.878;8.036;2024-02-28T04:29:53;47.67;;;18.88;;
28353;SDS011;15603;50.878;8.036;2024-02-28T04:32:20;54.75;;;18.98;;
28353;SDS011;15603;50.878;8.036;2024-02-28T04:34:47;43.45;;;17.77;;
28353;SDS011;15603;50.878;8.036;2024-02-28T04:37:14;53.10;;;17.23;;
28353;SDS011;15603;50.878;8.036;2024-02-28T04:39:41;51.72;;;18.90;;
28353;SDS011;15603;50.878;8.036;2024-02-28T04:42:10;44.92;;;16.45;;
28353;SDS011;15603;50.878;8.036;2024-02-28T04:44:37;52.47;;;17.17;;
28353;SDS011;15603;50.878;8.036;2024-02-28T04:47:04;45.60;;;17.30;;
28353;SDS011;15603;50.878;8.036;2024-02-28T04:49:32;48.25;;;18.63;;
28353;SDS011;15603;50.878;8.036;2024-02-28T04:52:03;51.28;;;19.27;;
28353;SDS011;15603;50.878;8.036;2024-02-28T04:54:30;54.28;;;18.42;;
28353;SDS011;15603;50.878;8.036;2024-02-28T04:56:57;52.83;;;19.75;;
28353;SDS011;15603;50.878;8.036;2024-02-28T04:59:24;50.60;;;18.58;;
28353;SDS011;15603;50.878;8.036;2024-02-28T05:01:51;50.22;;;19.25;;
28353;SDS011;15603;50.878;8.036;2024-02-28T05:04:18;45.83;;;18.80;;
28353;SDS011;15603;50.878;8.036;2024-02-28T05:06:46;50.78;;;17.63;;
28353;SDS011;15603;50.878;8.036;2024-02-28T05:09:13;56.05;;;19.10;;
28353;SDS011;15603;50.878;8.036;2024-02-28T05:11:41;46.58;;;18.05;;
28353;SDS011;15603;50.878;8.036;2024-02-28T05:14:09;49.55;;;18.50;;
28353;SDS011;15603;50.878;8.036;2024-02-28T05:16:37;56.95;;;20.13;;
28353;SDS011;15603;50.878;8.036;2024-02-28T05:19:04;50.92;;;18.38;;
28353;SDS011;15603;50.878;8.036;2024-02-28T05:21:31;41.42;;;17.15;;
28353;SDS011;15603;50.878;8.036;2024-02-28T05:23:58;57.17;;;18.73;;
28353;SDS011;15603;50.878;8.036;2024-02-28T05:26:26;41.58;;;18.02;;
28353;SDS011;15603;50.878;8.036;2024-02-28T05:28:53;47.38;;;18.55;;
28353;SDS011;15603;50.878;8.036;2024-02-28T05:31:24;64.07;;;18.88;;
28353;SDS011;15603;50.878;8.036;2024-02-28T05:33:53;46.97;;;16.35;;
28353;SDS011;15603;50.878;8.036;2024-02-28T05:36:24;51.80;;;19.08;;
28353;SDS011;15603;50.878;8.036;2024-02-28T05:38:53;42.35;;;16.90;;
28353;SDS011;15603;50.878;8.036;2024-02-28T05:41:21;50.13;;;17.75;;
28353;SDS011;15603;50.878;8.036;2024-02-28T05:43:49;45.05;;;16.98;;
28353;SDS011;15603;50.878;8.036;2024-02-28T05:46:16;56.78;;;17.67;;
28353;SDS011;15603;50.878;8.036;2024-02-28T05:48:45;48.72;;;17.17;;
28353;SDS011;15603;50.878;8.036;2024-02-28T05:51:13;60.25;;;17.55;;
28353;SDS011;15603;50.878;8.036;2024-02-28T05:53:41;45.83;;;18.70;;
28353;SDS011;15603;50.878;8.036;2024-02-28T05:56:10;50.22;;;18.05;;
28353;SDS011;15603;50.878;8.036;2024-02-28T05:58:41;51.10;;;19.50;;
28353;SDS011;15603;50.878;8.036;2024-02-28T06:01:10;54.63;;;18.00;;
28353;SDS011;15603;50.878;8.036;2024-02-28T06:03:38;48.67;;;18.17;;
28353;SDS011;15603;50.878;8.036;2024-02-28T06:06:05;58.58;;;16.13;;
28353;SDS011;15603;50.878;8.036;2024-02-28T06:08:37;47.00;;;17.95;;
28353;SDS011;15603;50.878;8.036;2024-02-28T06:11:05;46.22;;;16.33;;
28353;SDS011;15603;50.878;8.036;2024-02-28T06:13:32;48.17;;;17.20;;
28353;SDS011;15603;50.878;8.036;2024-02-28T06:16:00;45.78;;;17.38;;
28353;SDS011;15603;50.878;8.036;2024-02-28T06:18:27;44.67;;;16.95;;
28353;SDS011;15603;50.878;8.036;2024-02-28T06:20:55;44.05;;;16.38;;
28353;SDS011;15603;50.878;8.036;2024-02-28T06:23:23;47.38;;;16.75;;
28353;SDS011;15603;50.878;8.036;2024-02-28T06:25:56;44.60;;;18.15;;
28353;SDS011;15603;50.878;8.036;2024-02-28T06:28:24;42.17;;;15.68;;
28353;SDS011;15603;50.878;8.036;2024-02-28T06:30:52;44.72;;;17.08;;
28353;SDS011;15603;50.878;8.036;2024-02-28T06:33:19;41.88;;;17.38;;
28353;SDS011;15603;50.878;8.036;2024-02-28T06:35:46;43.28;;;15.80;;
28353;SDS011;15603;50.878;8.036;2024-02-28T06:38:13;45.70;;;16.60;;
28353;SDS011;15603;50.878;8.036;2024-02-28T06:40:40;49.58;;;17.08;;
28353;SDS011;15603;50.878;8.036;2024-02-28T06:43:08;42.70;;;16.40;;
28353;SDS011;15603;50.878;8.036;2024-02-28T06:45:36;47.22;;;15.75;;
28353;SDS011;15603;50.878;8.036;2024-02-28T06:48:04;45.92;;;17.60;;
28353;SDS011;15603;50.878;8.036;2024-02-28T06:50:32;43.83;;;16.27;;
28353;SDS011;15603;50.878;8.036;2024-02-28T06:53:00;52.08;;;18.40;;
28353;SDS011;15603;50.878;8.036;2024-02-28T06:55:27;42.22;;;16.55;;
28353;SDS011;15603;50.878;8.036;2024-02-28T06:57:54;46.95;;;17.02;;
28353;SDS011;15603;50.878;8.036;2024-02-28T07:00:21;42.50;;;17.23;;
28353;SDS011;15603;50.878;8.036;2024-02-28T07:02:48;46.15;;;17.02;;
28353;SDS011;15603;50.878;8.036;2024-02-28T07:05:16;41.67;;;16.40;;
28353;SDS011;15603;50.878;8.036;2024-02-28T07:07:43;38.58;;;15.18;;
28353;SDS011;15603;50.878;8.036;2024-02-28T07:10:10;53.70;;;16.10;;
28353;SDS011;15603;50.878;8.036;2024-02-28T07:12:38;49.58;;;16.90;;
28353;SDS011;15603;50.878;8.036;2024-02-28T07:15:05;44.78;;;16.75;;
28353;SDS011;15603;50.878;8.036;2024-02-28T07:17:32;53.75;;;17.40;;
28353;SDS011;15603;50.878;8.036;2024-02-28T07:19:59;46.05;;;15.18;;
28353;SDS011;15603;50.878;8.036;2024-02-28T07:22:28;43.83;;;15.60;;
28353;SDS011;15603;50.878;8.036;2024-02-28T07:24:55;51.45;;;17.95;;
28353;SDS011;15603;50.878;8.036;2024-02-28T07:27:22;42.58;;;15.63;;
28353;SDS011;15603;50.878;8.036;2024-02-28T07:29:51;47.30;;;15.85;;
28353;SDS011;15603;50.878;8.036;2024-02-28T07:32:18;48.83;;;15.63;;
28353;SDS011;15603;50.878;8.036;2024-02-28T07:34:45;41.75;;;17.13;;
28353;SDS011;15603;50.878;8.036;2024-02-28T07:37:12;47.72;;;16.58;;
28353;SDS011;15603;50.878;8.036;2024-02-28T07:39:39;47.38;;;16.40;;
28353;SDS011;15603;50.878;8.036;2024-02-28T07:42:07;44.92;;;15.38;;
28353;SDS011;15603;50.878;8.036;2024-02-28T07:44:34;45.42;;;16.17;;
28353;SDS011;15603;50.878;8.036;2024-02-28T07:47:01;40.60;;;16.27;;
28353;SDS011;15603;50.878;8.036;2024-02-28T07:49:28;50.83;;;17.13;;
28353;SDS011;15603;50.878;8.036;2024-02-28T07:51:55;41.55;;;16.15;;
28353;SDS011;15603;50.878;8.036;2024-02-28T07:54:23;49.70;;;18.17;;
28353;SDS011;15603;50.878;8.036;2024-02-28T07:56:51;43.53;;;16.15;;
28353;SDS011;15603;50.878;8.036;2024-02-28T07:59:18;41.15;;;17.23;;
28353;SDS011;15603;50.878;8.036;2024-02-28T08:01:45;42.75;;;16.40;;
28353;SDS011;15603;50.878;8.036;2024-02-28T08:04:13;44.25;;;16.42;;
28353;SDS011;15603;50.878;8.036;2024-02-28T08:06:40;45.85;;;17.33;;
28353;SDS011;15603;50.878;8.036;2024-02-28T08:09:08;43.40;;;15.55;;
28353;SDS011;15603;50.878;8.036;2024-02-28T08:11:39;43.53;;;16.30;;
28353;SDS011;15603;50.878;8.036;2024-02-28T08:14:07;37.83;;;14.45;;
28353;SDS011;15603;50.878;8.036;2024-02-28T08:16:34;39.22;;;16.13;;
28353;SDS011;15603;50.878;8.036;2024-02-28T08:19:01;41.85;;;15.63;;
28353;SDS011;15603;50.878;8.036;2024-02-28T08:21:28;49.50;;;17.05;;
28353;SDS011;15603;50.878;8.036;2024-02-28T08:23:56;46.80;;;15.52;;
28353;SDS011;15603;50.878;8.036;2024-02-28T08:26:24;39.60;;;15.77;;
28353;SDS011;15603;50.878;8.036;2024-02-28T08:28:52;42.42;;;15.57;;
28353;SDS011;15603;50.878;8.036;2024-02-28T08:31:19;40.60;;;15.43;;
28353;SDS011;15603;50.878;8.036;2024-02-28T08:33:46;47.58;;;16.15;;
28353;SDS011;15603;50.878;8.036;2024-02-28T08:36:13;41.58;;;15.68;;
28353;SDS011;15603;50.878;8.036;2024-02-28T08:38:42;44.08;;;16.23;;
28353;SDS011;15603;50.878;8.036;2024-02-28T08:41:09;41.33;;;15.75;;
28353;SDS011;15603;50.878;8.036;2024-02-28T08:43:39;39.15;;;14.75;;
28353;SDS011;15603;50.878;8.036;2024-02-28T08:46:07;43.55;;;15.48;;
28353;SDS011;15603;50.878;8.036;2024-02-28T08:48:34;39.42;;;14.93;;
28353;SDS011;15603;50.878;8.036;2024-02-28T08:51:02;39.83;;;15.00;;
28353;SDS011;15603;50.878;8.036;2024-02-28T08:53:29;43.85;;;15.65;;
28353;SDS011;15603;50.878;8.036;2024-02-28T08:55:56;35.60;;;14.38;;
28353;SDS011;15603;50.878;8.036;2024-02-28T08:58:24;41.22;;;14.80;;
28353;SDS011;15603;50.878;8.036;2024-02-28T09:00:51;39.83;;;14.82;;
28353;SDS011;15603;50.878;8.036;2024-02-28T09:03:18;41.80;;;14.75;;
28353;SDS011;15603;50.878;8.036;2024-02-28T09:05:46;41.67;;;15.93;;
28353;SDS011;15603;50.878;8.036;2024-02-28T09:08:14;38.38;;;14.50;;
28353;SDS011;15603;50.878;8.036;2024-02-28T09:10:41;34.47;;;13.68;;
28353;SDS011;15603;50.878;8.036;2024-02-28T09:13:08;35.78;;;14.40;;
28353;SDS011;15603;50.878;8.036;2024-02-28T09:15:37;37.33;;;14.68;;
28353;SDS011;15603;50.878;8.036;2024-02-28T09:18:04;37.65;;;14.05;;
28353;SDS011;15603;50.878;8.036;2024-02-28T09:20:32;37.92;;;14.65;;
28353;SDS011;15603;50.878;8.036;2024-02-28T09:22:59;35.53;;;13.98;;
28353;SDS011;15603;50.878;8.036;2024-02-28T09:25:26;34.45;;;13.93;;
28353;SDS011;15603;50.878;8.036;2024-02-28T09:27:55;37.92;;;14.30;;
28353;SDS011;15603;50.878;8.036;2024-02-28T09:30:22;36.30;;;14.45;;
28353;SDS011;15603;50.878;8.036;2024-02-28T09:32:52;36.50;;;14.32;;
28353;SDS011;15603;50.878;8.036;2024-02-28T09:35:20;46.13;;;16.25;;
28353;SDS011;15603;50.878;8.036;2024-02-28T09:37:48;35.28;;;13.32;;
28353;SDS011;15603;50.878;8.036;2024-02-28T09:40:15;30.75;;;12.27;;
28353;SDS011;15603;50.878;8.036;2024-02-28T09:42:45;32.83;;;12.70;;
28353;SDS011;15603;50.878;8.036;2024-02-28T09:45:19;31.13;;;12.23;;
28353;SDS011;15603;50.878;8.036;2024-02-28T09:47:48;30.25;;;12.13;;
28353;SDS011;15603;50.878;8.036;2024-02-28T09:50:17;37.33;;;12.32;;
28353;SDS011;15603;50.878;8.036;2024-02-28T09:52:45;35.90;;;12.68;;
28353;SDS011;15603;50.878;8.036;2024-02-28T09:55:24;38.13;;;14.05;;
28353;SDS011;15603;50.878;8.036;2024-02-28T09:57:51;32.83;;;13.02;;
28353;SDS011;15603;50.878;8.036;2024-02-28T10:00:20;30.15;;;13.02;;
28353;SDS011;15603;50.878;8.036;2024-02-28T10:02:47;34.75;;;14.45;;
28353;SDS011;15603;50.878;8.036;2024-02-28T10:05:18;33.50;;;14.00;;
28353;SDS011;15603;50.878;8.036;2024-02-28T10:07:45;32.40;;;12.65;;
28353;SDS011;15603;50.878;8.036;2024-02-28T10:10:14;34.15;;;13.25;;
28353;SDS011;15603;50.878;8.036;2024-02-28T10:12:43;34.80;;;12.93;;
28353;SDS011;15603;50.878;8.036;2024-02-28T10:15:11;31.55;;;12.05;;
28353;SDS011;15603;50.878;8.036;2024-02-28T10:17:38;34.60;;;13.10;;
28353;SDS011;15603;50.878;8.036;2024-02-28T10:20:06;32.40;;;12.32;;
28353;SDS011;15603;50.878;8.036;2024-02-28T10:22:36;31.15;;;13.35;;
28353;SDS011;15603;50.878;8.036;2024-02-28T10:25:03;39.83;;;14.57;;
28353;SDS011;15603;50.878;8.036;2024-02-28T10:27:32;39.80;;;14.52;;
28353;SDS011;15603;50.878;8.036;2024-02-28T10:30:01;36.53;;;13.32;;
28353;SDS011;15603;50.878;8.036;2024-02-28T10:32:33;38.27;;;14.07;;
28353;SDS011;15603;50.878;8.036;2024-02-28T10:35:02;31.50;;;13.95;;
28353;SDS011;15603;50.878;8.036;2024-02-28T10:37:30;40.03;;;14.55;;
28353;SDS011;15603;50.878;8.036;2024-02-28T10:39:59;36.60;;;13.57;;
28353;SDS011;15603;50.878;8.036;2024-02-28T10:42:29;30.75;;;13.93;;
28353;SDS011;15603;50.878;8.036;2024-02-28T10:44:57;40.78;;;14.77;;
28353;SDS011;15603;50.878;8.036;2024-02-28T10:47:49;39.33;;;14.95;;
28353;SDS011;15603;50.878;8.036;2024-02-28T10:52:45;36.58;;;13.98;;
28353;SDS011;15603;50.878;8.036;2024-02-28T10:55:21;37.40;;;14.93;;
28353;SDS011;15603;50.878;8.036;2024-02-28T10:57:58;37.60;;;14.93;;
28353;SDS011;15603;50.878;8.036;2024-02-28T11:00:30;45.50;;;14.52;;
28353;SDS011;15603;50.878;8.036;2024-02-28T11:02:58;32.80;;;13.23;;
28353;SDS011;15603;50.878;8.036;2024-02-28T11:08:07;40.38;;;15.48;;
28353;SDS011;15603;50.878;8.036;2024-02-28T11:10:40;46.42;;;14.73;;
28353;SDS011;15603;50.878;8.036;2024-02-28T11:13:22;35.28;;;14.50;;
28353;SDS011;15603;50.878;8.036;2024-02-28T11:15:51;46.63;;;15.55;;
28353;SDS011;15603;50.878;8.036;2024-02-28T11:18:18;33.92;;;14.30;;
28353;SDS011;15603;50.878;8.036;2024-02-28T11:20:46;36.10;;;14.23;;
28353;SDS011;15603;50.878;8.036;2024-02-28T11:23:16;40.97;;;16.35;;
28353;SDS011;15603;50.878;8.036;2024-02-28T11:25:44;43.45;;;15.25;;
28353;SDS011;15603;50.878;8.036;2024-02-28T11:28:11;41.90;;;15.35;;
28353;SDS011;15603;50.878;8.036;2024-02-28T11:30:40;32.92;;;13.70;;
28353;SDS011;15603;50.878;8.036;2024-02-28T11:33:08;39.13;;;15.30;;
28353;SDS011;15603;50.878;8.036;2024-02-28T11:35:36;39.70;;;14.95;;
28353;SDS011;15603;50.878;8.036;2024-02-28T11:38:06;44.05;;;16.45;;
28353;SDS011;15603;50.878;8.036;2024-02-28T11:40:33;35.72;;;15.32;;
28353;SDS011;15603;50.878;8.036;2024-02-28T11:43:01;38.15;;;15.48;;
28353;SDS011;15603;50.878;8.036;2024-02-28T11:45:30;37.50;;;15.18;;
28353;SDS011;15603;50.878;8.036;2024-02-28T11:47:58;38.33;;;15.38;;
28353;SDS011;15603;50.878;8.036;2024-02-28T11:50:25;40.03;;;15.70;;
28353;SDS011;15603;50.878;8.036;2024-02-28T11:52:57;32.00;;;14.20;;
28353;SDS011;15603;50.878;8.036;2024-02-28T11:55:25;33.70;;;13.82;;
28353;SDS011;15603;50.878;8.036;2024-02-28T11:57:52;37.80;;;14.30;;
28353;SDS011;15603;50.878;8.036;2024-02-28T12:00:19;33.97;;;14.57;;
28353;SDS011;15603;50.878;8.036;2024-02-28T12:02:47;34.90;;;14.82;;
28353;SDS011;15603;50.878;8.036;2024-02-28T12:05:18;33.13;;;13.75;;
28353;SDS011;15603;50.878;8.036;2024-02-28T12:07:46;31.90;;;14.45;;
28353;SDS011;15603;50.878;8.036;2024-02-28T12:10:13;32.83;;;14.23;;
28353;SDS011;15603;50.878;8.036;2024-02-28T12:12:41;33.50;;;12.48;;
28353;SDS011;15603;50.878;8.036;2024-02-28T12:15:08;26.08;;;11.52;;
28353;SDS011;15603;50.878;8.036;2024-02-28T12:17:36;32.13;;;13.70;;
28353;SDS011;15603;50.878;8.036;2024-02-28T12:20:04;36.97;;;15.10;;
28353;SDS011;15603;50.878;8.036;2024-02-28T12:22:32;37.13;;;14.20;;
28353;SDS011;15603;50.878;8.036;2024-02-28T12:25:00;28.88;;;13.45;;
28353;SDS011;15603;50.878;8.036;2024-02-28T12:27:31;32.53;;;12.40;;
28353;SDS011;15603;50.878;8.036;2024-02-28T12:29:58;34.80;;;13.77;;
28353;SDS011;15603;50.878;8.036;2024-02-28T12:32:25;28.13;;;12.90;;
28353;SDS011;15603;50.878;8.036;2024-02-28T12:34:53;33.92;;;13.98;;
28353;SDS011;15603;50.878;8.036;2024-02-28T12:37:20;32.83;;;14.23;;
28353;SDS011;15603;50.878;8.036;2024-02-28T12:39:47;33.08;;;13.85;;
28353;SDS011;15603;50.878;8.036;2024-02-28T12:42:15;28.23;;;12.93;;
28353;SDS011;15603;50.878;8.036;2024-02-28T12:44:42;30.40;;;12.90;;
28353;SDS011;15603;50.878;8.036;2024-02-28T12:47:12;28.48;;;12.48;;
28353;SDS011;15603;50.878;8.036;2024-02-28T12:49:39;35.40;;;14.55;;
28353;SDS011;15603;50.878;8.036;2024-02-28T12:52:06;31.55;;;12.93;;
28353;SDS011;15603;50.878;8.036;2024-02-28T12:54:34;33.47;;;13.10;;
28353;SDS011;15603;50.878;8.036;2024-02-28T12:57:01;30.27;;;12.18;;
28353;SDS011;15603;50.878;8.036;2024-02-28T12:59:32;30.20;;;12.10;;
28353;SDS011;15603;50.878;8.036;2024-02-28T13:02:00;31.92;;;12.90;;
28353;SDS011;15603;50.878;8.036;2024-02-28T13:04:27;25.73;;;12.15;;
28353;SDS011;15603;50.878;8.036;2024-02-28T13:06:55;29.15;;;12.43;;
28353;SDS011;15603;50.878;8.036;2024-02-28T13:09:22;31.15;;;12.82;;
28353;SDS011;15603;50.878;8.036;2024-02-28T13:11:50;33.30;;;12.95;;
28353;SDS011;15603;50.878;8.036;2024-02-28T13:14:17;33.97;;;12.85;;
28353;SDS011;15603;50.878;8.036;2024-02-28T13:16:45;29.02;;;11.77;;
28353;SDS011;15603;50.878;8.036;2024-02-28T13:19:12;29.65;;;12.63;;
28353;SDS011;15603;50.878;8.036;2024-02-28T13:21:41;26.90;;;12.05;;
28353;SDS011;15603;50.878;8.036;2024-02-28T13:24:09;29.13;;;11.93;;
28353;SDS011;15603;50.878;8.036;2024-02-28T13:26:37;28.10;;;11.80;;
28353;SDS011;15603;50.878;8.036;2024-02-28T13:29:05;25.83;;;10.90;;
28353;SDS011;15603;50.878;8.036;2024-02-28T13:31:32;25.25;;;11.05;;
28353;SDS011;15603;50.878;8.036;2024-02-28T13:34:00;24.00;;;10.52;;
28353;SDS011;15603;50.878;8.036;2024-02-28T13:36:27;23.52;;;10.48;;
28353;SDS011;15603;50.878;8.036;2024-02-28T13:38:55;25.30;;;10.27;;
28353;SDS011;15603;50.878;8.036;2024-02-28T13:41:22;29.63;;;10.05;;
28353;SDS011;15603;50.878;8.036;2024-02-28T13:43:49;23.50;;;9.68;;
28353;SDS011;15603;50.878;8.036;2024-02-28T13:46:16;22.15;;;9.80;;
28353;SDS011;15603;50.878;8.036;2024-02-28T13:48:46;24.05;;;9.55;;
28353;SDS011;15603;50.878;8.036;2024-02-28T13:51:14;24.70;;;9.40;;
28353;SDS011;15603;50.878;8.036;2024-02-28T13:53:42;22.33;;;8.85;;
28353;SDS011;15603;50.878;8.036;2024-02-28T13:56:10;23.90;;;9.23;;
28353;SDS011;15603;50.878;8.036;2024-02-28T13:58:37;28.52;;;10.05;;
28353;SDS011;15603;50.878;8.036;2024-02-28T14:01:15;24.67;;;9.48;;
28353;SDS011;15603;50.878;8.036;2024-02-28T14:03:42;20.98;;;9.40;;
28353;SDS011;15603;50.878;8.036;2024-02-28T14:06:10;21.73;;;9.48;;
28353;SDS011;15603;50.878;8.036;2024-02-28T14:08:37;22.45;;;9.02;;
28353;SDS011;15603;50.878;8.036;2024-02-28T14:11:09;20.77;;;9.23;;
28353;SDS011;15603;50.878;8.036;2024-02-28T14:13:37;17.38;;;7.82;;
28353;SDS011;15603;50.878;8.036;2024-02-28T14:16:07;22.90;;;8.13;;
28353;SDS011;15603;50.878;8.036;2024-02-28T14:18:34;21.30;;;8.23;;
28353;SDS011;15603;50.878;8.036;2024-02-28T14:21:02;21.92;;;8.88;;
28353;SDS011;15603;50.878;8.036;2024-02-28T14:23:33;24.10;;;7.55;;
28353;SDS011;15603;50.878;8.036;2024-02-28T14:26:00;19.45;;;8.18;;
28353;SDS011;15603;50.878;8.036;2024-02-28T14:28:29;19.73;;;7.90;;
28353;SDS011;15603;50.878;8.036;2024-02-28T14:30:56;14.52;;;6.28;;
28353;SDS011;15603;50.878;8.036;2024-02-28T14:33:23;9.68;;;4.53;;